Science Garden, Philippines

4:57 PM PHT on August 04, 2015 (GMT +0800)
Loyola Heights | | Change Station
CLOSE
Current Station
Personal Weather Station
Location: Quezon City, NCR
Elevation: 187 ft
Nearby Weather Stations

Elev 187 ft 14.64 °N, 121.08 °E | Updated 9 minutes ago

Mostly Cloudy
Mostly Cloudy
80.3 °F
Feels Like 88 °F
N
0.0
Wind Variable Wind from ESE

Today
High -- | Low -- °F
--% Chance of Precip.
Yesterday
High -- | Low -- °F
Precip. -- in
5:39 AM 6:24 PM
Waning Gibbous, 79% visible
Pressure 29.65 in
Visibility 6.2 miles
Clouds Few 2300 ft
Scattered Clouds 2500 ft
Scattered Clouds 10000 ft
Mostly Cloudy 30000 ft
Heat Index 88 °F
Dew Point 79 °F
Humidity 97%
Rainfall 0.69 in
Snow Depth Not available.
UV 6.3 out of 12
Pollen Not available.
Air Quality Not available.
Flu Activity Not available.
METAR RPLL 040800Z 27008KT 240V330 9999 FEW023CB SCT025 SCT100 BKN300 31/24 Q1004 NOSIG RMK A2965 CB NNE

More Conditions Fewer Conditions

Pressure 29.65 in
Visibility 6.2 miles
Clouds Few 2300 ft
Scattered Clouds 2500 ft
Scattered Clouds 10000 ft
Mostly Cloudy 30000 ft
Heat Index 88 °F
Dew Point 79 °F
Humidity 97%
Rainfall 0.69 in
Snow Depth Not available.
UV 6.3 out of 12
Pollen Not available.
Air Quality Not available.
Flu Activity Not available.
METAR RPLL 040800Z 27008KT 240V330 9999 FEW023CB SCT025 SCT100 BKN300 31/24 Q1004 NOSIG RMK A2965 CB NNE

More Conditions Fewer Conditions

10-Day Weather Forecast

×

Almanac

Astronomy

Aug. 04, 2015 Rise Set
Actual Time
Civil Twilight
Nautical Twilight
Astronomical Twilight
Moon
Length of Visible Light
Length of Day
Tomorrow will be .
, % of the Moon is Illuminated

Today's Extremes

Country Highs Country Lows

Community

WunderPhotos

Upload Photos

1,843,877 photos uploaded!

WunderBlogs® & News

Nearby

Air Quality

  Air Quality AQ Index Pollutant
Not available.

Snow Depth

Station Depth Elevation

Earthquake Activity

City Distance Mag. Time & Date
Minimum magnitude displayed is 2.5.

Coastal Water Temperatures

Place Temperature

Stations

Nearby Weather Stations

Station Location Temp. Windchill Dew Point Humidity Wind Precip. Elev Updated Type